createdAt,value
2022-08-07T00:00:15.412Z,19.43
2022-08-07T00:03:04.234Z,19.38
2022-08-07T00:05:32.411Z,19.36
2022-08-07T00:08:04.907Z,19.37
2022-08-07T00:10:32.546Z,19.37
2022-08-07T00:13:24.074Z,19.35
2022-08-07T00:15:52.884Z,19.34
2022-08-07T00:18:27.881Z,19.31
2022-08-07T00:21:08.121Z,19.25
2022-08-07T00:23:52.082Z,19.20
2022-08-07T00:26:49.121Z,19.13
2022-08-07T00:29:06.111Z,19.04
2022-08-07T00:31:37.954Z,19.02
2022-08-07T00:34:09.662Z,18.98
2022-08-07T00:36:42.944Z,18.94
2022-08-07T00:39:16.251Z,18.90
2022-08-07T00:41:53.655Z,18.94
2022-08-07T00:44:28.110Z,18.91
2022-08-07T00:46:55.482Z,18.87
2022-08-07T00:49:24.899Z,18.82
2022-08-07T00:52:10.579Z,18.82
2022-08-07T00:54:40.804Z,18.82
2022-08-07T00:57:10.072Z,18.78
2022-08-07T00:59:39.602Z,18.72
2022-08-07T01:02:13.935Z,18.69
2022-08-07T01:04:58.360Z,18.64
2022-08-07T01:07:28.641Z,18.57
2022-08-07T01:10:04.708Z,18.54
2022-08-07T01:12:36.638Z,18.51
2022-08-07T01:15:07.179Z,18.47
2022-08-07T01:17:40.025Z,18.45
2022-08-07T01:20:16.717Z,18.45
2022-08-07T01:22:47.032Z,18.41
2022-08-07T01:25:53.645Z,18.39
2022-08-07T01:28:22.163Z,18.36
2022-08-07T01:30:51.208Z,18.30
2022-08-07T01:33:19.265Z,18.26
2022-08-07T01:35:53.302Z,18.21
2022-08-07T01:38:25.038Z,18.20
2022-08-07T01:40:59.533Z,18.21
2022-08-07T01:43:34.591Z,18.20
2022-08-07T01:46:05.578Z,18.18
2022-08-07T01:48:35.812Z,18.16
2022-08-07T01:52:00.916Z,18.12
2022-08-07T01:54:12.475Z,18.06
2022-08-07T01:56:56.567Z,18.02
2022-08-07T01:59:43.765Z,17.99
2022-08-07T02:02:32.803Z,17.98
2022-08-07T02:05:43.361Z,17.93
2022-08-07T02:08:14.754Z,17.93
2022-08-07T02:10:44.702Z,17.91
2022-08-07T02:13:27.644Z,17.91
2022-08-07T02:16:14.887Z,17.86
2022-08-07T02:18:47.075Z,17.83
2022-08-07T02:21:17.357Z,17.76
2022-08-07T02:23:47.725Z,17.77
2022-08-07T02:26:32.313Z,17.80
2022-08-07T02:29:05.032Z,17.77
2022-08-07T02:31:34.589Z,17.71
2022-08-07T02:34:11.682Z,17.73
2022-08-07T02:36:46.153Z,17.67
2022-08-07T02:39:43.403Z,17.64
2022-08-07T02:42:10.278Z,17.64
2022-08-07T02:44:48.057Z,17.67
2022-08-07T02:47:19.495Z,17.64
2022-08-07T02:49:58.784Z,17.60
2022-08-07T02:52:37.272Z,17.58
2022-08-07T02:55:27.623Z,17.57
2022-08-07T02:58:03.079Z,17.56
2022-08-07T03:00:36.069Z,17.54
2022-08-07T03:03:13.531Z,17.53
2022-08-07T03:05:54.346Z,17.51
2022-08-07T03:08:29.089Z,17.51
2022-08-07T03:10:57.942Z,17.49
2022-08-07T03:13:25.566Z,17.52
2022-08-07T03:15:58.695Z,17.48
2022-08-07T03:18:34.991Z,17.48
2022-08-07T03:21:08.261Z,17.47
2022-08-07T03:24:20.022Z,17.48
2022-08-07T03:26:32.577Z,17.48
2022-08-07T03:29:03.973Z,17.45
2022-08-07T03:31:43.378Z,17.48
2022-08-07T03:34:18.783Z,17.49
2022-08-07T03:36:53.277Z,17.47
2022-08-07T03:39:46.069Z,17.46
2022-08-07T03:42:12.662Z,17.44
2022-08-07T03:44:40.487Z,17.40
2022-08-07T03:47:13.330Z,17.36
2022-08-07T03:49:49.916Z,17.35
2022-08-07T03:52:26.657Z,17.34
2022-08-07T03:55:06.593Z,17.32
2022-08-07T03:58:34.082Z,17.29
2022-08-07T04:00:30.190Z,17.31
2022-08-07T04:02:59.635Z,17.29
2022-08-07T04:05:40.666Z,17.27
2022-08-07T04:08:16.180Z,17.30
2022-08-07T04:10:54.163Z,17.33
2022-08-07T04:14:09.459Z,17.36
2022-08-07T04:16:31.107Z,17.33
2022-08-07T04:19:12.409Z,17.34
2022-08-07T04:21:58.748Z,17.33
2022-08-07T04:24:34.215Z,17.30
2022-08-07T04:27:06.058Z,17.29
2022-08-07T04:29:58.622Z,17.31
2022-08-07T04:32:34.396Z,17.28
2022-08-07T04:35:06.306Z,17.31
2022-08-07T04:37:52.945Z,17.37
2022-08-07T04:40:29.672Z,17.39
2022-08-07T04:43:01.260Z,17.35
2022-08-07T04:46:02.399Z,17.29
2022-08-07T04:49:03.430Z,17.23
2022-08-07T04:51:56.130Z,17.20
2022-08-07T04:54:58.180Z,17.27
2022-08-07T04:58:26.157Z,17.31
2022-08-07T05:00:47.605Z,17.38
2022-08-07T05:03:38.755Z,17.41
2022-08-07T05:06:19.972Z,17.48
2022-08-07T05:09:08.420Z,17.50
2022-08-07T05:11:56.892Z,17.57
2022-08-07T05:14:55.621Z,17.64
2022-08-07T05:17:50.938Z,17.70
2022-08-07T05:20:25.702Z,17.74
2022-08-07T05:22:59.676Z,17.80
2022-08-07T05:25:37.420Z,17.88
2022-08-07T05:28:22.725Z,17.95
2022-08-07T05:30:54.348Z,18.03
2022-08-07T05:33:23.578Z,18.10
2022-08-07T05:35:55.390Z,18.13
2022-08-07T05:39:01.013Z,18.17
2022-08-07T05:41:16.625Z,18.31
2022-08-07T05:44:12.023Z,18.38
2022-08-07T05:46:42.891Z,18.46
2022-08-07T05:49:14.583Z,18.54
2022-08-07T05:51:46.409Z,18.56
2022-08-07T05:54:31.289Z,18.67
2022-08-07T05:57:06.319Z,18.76
2022-08-07T05:59:57.449Z,18.77
2022-08-07T06:02:30.724Z,18.77
2022-08-07T06:05:10.893Z,18.84
2022-08-07T06:08:13.854Z,18.90
2022-08-07T06:10:32.262Z,18.97
2022-08-07T06:13:03.376Z,19.00
2022-08-07T06:15:41.884Z,19.02
2022-08-07T06:18:14.120Z,19.07
2022-08-07T06:20:50.228Z,19.06
2022-08-07T06:24:37.638Z,19.05
2022-08-07T06:26:20.133Z,19.07
2022-08-07T06:28:54.315Z,19.07
2022-08-07T06:31:24.306Z,19.14
2022-08-07T06:34:09.659Z,19.19
2022-08-07T06:36:40.451Z,19.22
2022-08-07T06:40:16.274Z,19.30
2022-08-07T06:42:07.824Z,19.32
2022-08-07T06:44:39.906Z,19.36
2022-08-07T06:47:10.222Z,19.39
2022-08-07T06:49:52.322Z,19.47
2022-08-07T06:52:36.451Z,19.51
2022-08-07T06:55:32.586Z,19.44
2022-08-07T06:58:14.518Z,19.50
2022-08-07T07:00:45.975Z,19.53
2022-08-07T07:03:17.128Z,19.58
2022-08-07T07:06:02.839Z,19.61
2022-08-07T07:08:33.817Z,19.64
2022-08-07T07:11:13.829Z,19.67
2022-08-07T07:13:58.715Z,19.70
2022-08-07T07:16:44.997Z,19.70
2022-08-07T07:19:56.553Z,19.78
2022-08-07T07:22:37.049Z,19.83
2022-08-07T07:25:14.240Z,19.83
2022-08-07T07:28:29.614Z,19.92
2022-08-07T07:31:21.571Z,20.00
2022-08-07T07:33:57.190Z,20.05
2022-08-07T07:36:29.643Z,20.08
2022-08-07T07:39:04.380Z,20.09
2022-08-07T07:42:01.884Z,20.14
2022-08-07T07:44:26.562Z,20.16
2022-08-07T07:47:04.296Z,20.20
2022-08-07T07:50:33.944Z,20.20
2022-08-07T07:52:37.601Z,20.22
2022-08-07T07:55:09.380Z,20.23
2022-08-07T07:57:51.862Z,20.29
2022-08-07T08:00:29.690Z,20.35
2022-08-07T08:03:08.506Z,20.43
2022-08-07T08:05:50.797Z,20.46
2022-08-07T08:08:34.835Z,20.51
2022-08-07T08:11:13.498Z,20.56
2022-08-07T08:13:54.996Z,20.61
2022-08-07T08:16:38.028Z,20.65
2022-08-07T08:19:17.666Z,20.74
2022-08-07T08:22:17.376Z,20.78
2022-08-07T08:25:18.963Z,20.83
2022-08-07T08:28:03.668Z,20.88
2022-08-07T08:30:42.481Z,20.93
2022-08-07T08:33:17.026Z,20.98
2022-08-07T08:35:49.890Z,21.05
2022-08-07T08:38:29.573Z,21.12
2022-08-07T08:41:11.989Z,21.17
2022-08-07T08:44:08.636Z,21.20
2022-08-07T08:46:49.191Z,21.18
2022-08-07T08:50:02.517Z,21.26
2022-08-07T08:53:01.005Z,21.28
2022-08-07T08:56:12.079Z,21.32
2022-08-07T08:59:12.856Z,21.39
2022-08-07T09:01:53.488Z,21.40
2022-08-07T09:04:46.924Z,21.39
2022-08-07T09:07:46.521Z,21.46
2022-08-07T09:10:34.110Z,21.58
2022-08-07T09:13:14.750Z,21.65
2022-08-07T09:16:24.458Z,21.75
2022-08-07T09:19:52.744Z,21.85
2022-08-07T09:24:33.849Z,21.89
2022-08-07T09:25:55.192Z,21.99
2022-08-07T09:30:02.217Z,22.09
2022-08-07T09:31:48.410Z,22.13
2022-08-07T09:34:57.752Z,22.18
2022-08-07T09:37:48.505Z,22.23
2022-08-07T09:40:37.952Z,22.22
2022-08-07T09:44:10.327Z,22.38
2022-08-07T09:47:50.209Z,22.52
2022-08-07T09:50:30.726Z,22.57
2022-08-07T09:53:07.353Z,22.61
2022-08-07T09:56:13.858Z,22.64
2022-08-07T09:59:13.853Z,22.71
2022-08-07T10:02:01.646Z,22.81
2022-08-07T10:04:57.136Z,22.84
2022-08-07T10:08:02.470Z,22.93
2022-08-07T10:11:16.721Z,22.87
2022-08-07T10:14:01.744Z,22.86
2022-08-07T10:17:20.125Z,22.88
2022-08-07T10:20:30.463Z,22.99
2022-08-07T10:24:04.830Z,23.06
2022-08-07T10:27:19.206Z,23.09
2022-08-07T10:30:13.290Z,23.11
2022-08-07T10:33:08.531Z,23.05
2022-08-07T10:36:29.309Z,23.01
2022-08-07T10:39:18.632Z,23.06
2022-08-07T10:42:09.690Z,23.15
2022-08-07T10:45:01.342Z,23.16
2022-08-07T10:48:09.703Z,23.08
2022-08-07T10:50:50.956Z,23.06
2022-08-07T10:53:25.080Z,23.09
2022-08-07T10:56:20.790Z,23.13
2022-08-07T10:59:38.429Z,23.22
2022-08-07T11:02:49.423Z,23.23
2022-08-07T11:05:49.063Z,23.17
2022-08-07T11:08:58.660Z,23.09
2022-08-07T11:11:39.613Z,23.15
2022-08-07T11:14:44.102Z,23.16
2022-08-07T11:17:45.154Z,23.17
2022-08-07T11:20:24.881Z,23.24
2022-08-07T11:23:20.772Z,23.18
2022-08-07T11:26:33.737Z,23.23
2022-08-07T11:29:42.712Z,23.39
2022-08-07T11:32:29.157Z,23.40
2022-08-07T11:35:03.849Z,23.44
2022-08-07T11:38:10.324Z,23.48
2022-08-07T11:41:02.148Z,23.50
2022-08-07T11:44:12.682Z,23.49
2022-08-07T11:47:13.826Z,23.56
2022-08-07T11:50:31.508Z,23.64
2022-08-07T11:53:21.889Z,23.78
2022-08-07T11:56:34.441Z,23.81
2022-08-07T12:00:12.225Z,23.86
2022-08-07T12:02:40.421Z,23.92
2022-08-07T12:06:37.980Z,23.98
2022-08-07T12:09:01.730Z,23.99
2022-08-07T12:12:10.267Z,24.02
2022-08-07T12:15:35.771Z,24.06
2022-08-07T12:18:32.911Z,24.15
2022-08-07T12:22:35.854Z,24.08
2022-08-07T12:26:06.139Z,24.15
2022-08-07T12:28:57.872Z,24.11
2022-08-07T12:31:52.755Z,24.04
2022-08-07T12:34:39.453Z,24.08
2022-08-07T12:37:17.011Z,24.13
2022-08-07T12:39:55.534Z,24.20
2022-08-07T12:42:31.917Z,24.22
2022-08-07T12:45:11.979Z,24.26
2022-08-07T12:48:28.232Z,24.22
2022-08-07T12:51:17.634Z,24.26
2022-08-07T12:54:03.036Z,24.28
2022-08-07T12:56:55.061Z,24.34
2022-08-07T12:59:33.324Z,24.29
2022-08-07T13:02:52.706Z,24.33
2022-08-07T13:06:17.033Z,24.29
2022-08-07T13:10:11.000Z,24.31
2022-08-07T13:12:50.612Z,24.43
2022-08-07T13:15:59.019Z,24.48
2022-08-07T13:18:44.685Z,24.56
2022-08-07T13:21:51.099Z,24.63
2022-08-07T13:24:30.778Z,24.67
2022-08-07T13:27:12.903Z,24.63
2022-08-07T13:30:03.998Z,24.75
2022-08-07T13:34:32.092Z,24.79
2022-08-07T13:36:25.772Z,24.79
2022-08-07T13:39:11.174Z,24.76
2022-08-07T13:41:57.420Z,24.78
2022-08-07T13:44:34.548Z,24.73
2022-08-07T13:47:09.439Z,24.73
2022-08-07T13:50:33.730Z,24.79
2022-08-07T13:52:41.419Z,24.84
2022-08-07T13:55:26.405Z,24.87
2022-08-07T13:58:31.743Z,24.89
2022-08-07T14:01:09.009Z,24.85
2022-08-07T14:04:06.836Z,24.88
2022-08-07T14:06:39.009Z,24.88
2022-08-07T14:09:17.020Z,24.89
2022-08-07T14:12:10.494Z,24.84
2022-08-07T14:14:54.573Z,24.87
2022-08-07T14:18:13.169Z,24.95
2022-08-07T14:20:42.284Z,24.95
2022-08-07T14:23:58.672Z,24.91
2022-08-07T14:26:29.808Z,24.92
2022-08-07T14:29:08.902Z,24.95
2022-08-07T14:31:55.951Z,24.98
2022-08-07T14:34:29.934Z,25.02
2022-08-07T14:37:07.724Z,25.07
2022-08-07T14:40:17.031Z,25.13
2022-08-07T14:43:01.399Z,25.20
2022-08-07T14:45:46.938Z,25.23
2022-08-07T14:48:21.056Z,25.30
2022-08-07T14:50:53.926Z,25.27
2022-08-07T14:54:03.679Z,25.35
2022-08-07T14:56:29.481Z,25.38
2022-08-07T15:01:52.316Z,25.37
2022-08-07T15:04:25.040Z,25.35
2022-08-07T15:06:53.286Z,25.35
2022-08-07T15:09:58.351Z,25.36
2022-08-07T15:18:14.139Z,25.44
2022-08-07T15:25:13.966Z,25.53
2022-08-07T15:26:51.824Z,25.54
2022-08-07T15:32:13.296Z,25.63
2022-08-07T15:34:50.619Z,25.62
2022-08-07T15:37:28.875Z,25.68
2022-08-07T15:40:34.573Z,25.71
2022-08-07T15:43:53.116Z,25.71
2022-08-07T15:46:37.655Z,25.63
2022-08-07T15:49:15.226Z,25.58
2022-08-07T15:54:40.623Z,25.72
2022-08-07T15:57:27.765Z,26.14
2022-08-07T16:00:07.801Z,26.63
2022-08-07T16:02:46.904Z,27.08
2022-08-07T16:05:23.262Z,27.35
2022-08-07T16:08:33.647Z,27.61
2022-08-07T16:11:28.675Z,27.76
2022-08-07T16:14:48.597Z,27.85
2022-08-07T16:18:02.315Z,27.80
2022-08-07T16:20:43.168Z,27.69
2022-08-07T16:23:58.309Z,27.64
2022-08-07T16:26:30.800Z,27.53
2022-08-07T16:30:11.777Z,27.42
2022-08-07T16:34:02.931Z,27.10
2022-08-07T16:37:01.573Z,26.79
2022-08-07T16:40:28.408Z,26.52
2022-08-07T16:43:23.767Z,26.36
2022-08-07T16:47:06.487Z,26.17
2022-08-07T16:50:20.622Z,25.99
2022-08-07T16:52:57.567Z,25.87
2022-08-07T16:56:15.434Z,25.81
2022-08-07T16:59:21.327Z,25.69
2022-08-07T17:02:52.287Z,25.63
2022-08-07T17:06:19.445Z,25.58
2022-08-07T17:09:09.070Z,25.46
2022-08-07T17:12:35.911Z,25.40
2022-08-07T17:15:43.812Z,25.30
2022-08-07T17:18:46.161Z,25.25
2022-08-07T17:21:24.489Z,25.21
2022-08-07T17:24:14.406Z,25.17
2022-08-07T17:27:19.739Z,25.13
2022-08-07T17:30:15.230Z,25.05
2022-08-07T17:34:09.143Z,25.03
2022-08-07T17:35:55.295Z,25.00
2022-08-07T17:38:55.461Z,24.97
2022-08-07T17:42:01.788Z,24.95
2022-08-07T17:44:45.235Z,24.91
2022-08-07T17:47:43.074Z,24.87
2022-08-07T17:50:47.197Z,24.84
2022-08-07T17:54:13.165Z,24.76
2022-08-07T17:57:20.899Z,24.76
2022-08-07T17:59:56.471Z,24.72
2022-08-07T18:02:38.873Z,24.70
2022-08-07T18:05:28.604Z,24.68
2022-08-07T18:08:36.344Z,24.64
2022-08-07T18:12:06.651Z,24.60
2022-08-07T18:14:46.398Z,24.52
2022-08-07T18:18:47.599Z,24.48
2022-08-07T18:21:02.657Z,24.45
2022-08-07T18:23:58.475Z,24.42
2022-08-07T18:26:54.183Z,24.33
2022-08-07T18:30:06.129Z,24.32
2022-08-07T18:33:15.974Z,24.30
2022-08-07T18:36:14.108Z,24.25
2022-08-07T18:40:08.615Z,24.23
2022-08-07T18:42:42.291Z,24.15
2022-08-07T18:45:45.075Z,24.14
2022-08-07T18:50:31.694Z,24.11
2022-08-07T18:52:25.516Z,24.08
2022-08-07T18:54:51.003Z,24.06
2022-08-07T18:57:43.360Z,24.03
2022-08-07T19:01:00.834Z,24.01
2022-08-07T19:03:51.926Z,23.98
2022-08-07T19:06:37.055Z,23.95
2022-08-07T19:09:55.487Z,23.91
2022-08-07T19:12:58.319Z,23.87
2022-08-07T19:16:05.527Z,23.85
2022-08-07T19:19:00.375Z,23.83
2022-08-07T19:21:44.223Z,23.79
2022-08-07T19:24:43.598Z,23.75
2022-08-07T19:28:58.313Z,23.74
2022-08-07T19:31:03.179Z,23.71
2022-08-07T19:33:08.234Z,23.68
2022-08-07T19:35:43.837Z,23.64
2022-08-07T19:38:17.183Z,23.59
2022-08-07T19:40:51.314Z,23.55
2022-08-07T19:43:48.889Z,23.52
2022-08-07T19:46:19.038Z,23.48
2022-08-07T19:49:08.703Z,23.46
2022-08-07T19:51:53.319Z,23.41
2022-08-07T19:54:35.070Z,23.38
2022-08-07T19:58:03.044Z,23.36
2022-08-07T20:00:38.568Z,23.31
2022-08-07T20:03:35.591Z,23.25
2022-08-07T20:06:14.322Z,23.22
2022-08-07T20:08:50.698Z,23.19
2022-08-07T20:11:34.314Z,23.16
2022-08-07T20:14:13.739Z,23.12
2022-08-07T20:16:54.376Z,23.09
2022-08-07T20:19:28.627Z,23.03
2022-08-07T20:22:14.391Z,23.02
2022-08-07T20:24:51.311Z,22.98
2022-08-07T20:27:47.787Z,22.94
2022-08-07T20:30:13.177Z,22.85
2022-08-07T20:32:57.501Z,22.80
2022-08-07T20:35:54.378Z,22.74
2022-08-07T20:38:33.248Z,22.66
2022-08-07T20:41:05.495Z,22.61
2022-08-07T20:43:36.467Z,22.50
2022-08-07T20:46:28.096Z,22.45
2022-08-07T20:49:59.231Z,22.40
2022-08-07T20:51:50.774Z,22.35
2022-08-07T20:54:29.717Z,22.30
2022-08-07T21:00:04.657Z,22.19
2022-08-07T21:02:54.349Z,22.16
2022-08-07T21:05:54.464Z,22.13
2022-08-07T21:08:37.520Z,22.06
2022-08-07T21:11:14.197Z,22.01
2022-08-07T21:14:16.239Z,21.95
2022-08-07T21:18:00.692Z,21.92
2022-08-07T21:19:51.706Z,21.90
2022-08-07T21:22:31.361Z,21.88
2022-08-07T21:25:13.167Z,21.83
2022-08-07T21:28:01.671Z,21.81
2022-08-07T21:30:50.329Z,21.76
2022-08-07T21:33:29.414Z,21.74
2022-08-07T21:36:35.725Z,21.69
2022-08-07T21:39:51.665Z,21.62
2022-08-07T21:42:54.866Z,21.55
2022-08-07T21:46:09.795Z,21.50
2022-08-07T21:48:55.806Z,21.47
2022-08-07T21:51:57.646Z,21.43
2022-08-07T21:54:38.491Z,21.36
2022-08-07T21:58:02.075Z,21.33
2022-08-07T22:00:32.365Z,21.31
2022-08-07T22:03:31.721Z,21.27
2022-08-07T22:06:07.666Z,21.23
2022-08-07T22:08:59.605Z,21.22
2022-08-07T22:11:52.900Z,21.24
2022-08-07T22:14:23.903Z,21.25
2022-08-07T22:17:07.211Z,21.26
2022-08-07T22:20:08.718Z,21.26
2022-08-07T22:23:01.642Z,21.30
2022-08-07T22:25:50.788Z,21.27
2022-08-07T22:28:53.290Z,21.24
2022-08-07T22:31:55.889Z,21.21
2022-08-07T22:35:07.908Z,21.12
2022-08-07T22:38:03.255Z,21.14
2022-08-07T22:41:16.393Z,21.10
2022-08-07T22:43:51.838Z,21.08
2022-08-07T22:47:03.344Z,21.10
2022-08-07T22:50:33.506Z,21.21
2022-08-07T22:54:08.788Z,21.17
2022-08-07T22:57:16.858Z,21.06
2022-08-07T23:00:08.618Z,21.02
2022-08-07T23:03:09.232Z,20.98
2022-08-07T23:06:09.777Z,20.92
2022-08-07T23:10:04.474Z,20.90
2022-08-07T23:13:08.070Z,20.90
2022-08-07T23:16:46.876Z,20.87
2022-08-07T23:19:51.725Z,20.82
2022-08-07T23:22:55.493Z,20.83
2022-08-07T23:26:10.069Z,20.79
2022-08-07T23:29:43.609Z,20.75
2022-08-07T23:34:19.766Z,20.69
2022-08-07T23:35:58.010Z,20.70
2022-08-07T23:38:54.940Z,20.63
2022-08-07T23:42:23.937Z,20.56
2022-08-07T23:45:06.756Z,20.51
2022-08-07T23:48:32.525Z,20.47
2022-08-07T23:52:58.764Z,20.44
2022-08-07T23:54:36.277Z,20.38
2022-08-07T23:57:47.435Z,20.39
